Airfield :
LOGIN :

Register | Disclaimer

   EN    FR    IT 

 










Legend :    VFR   Marginal VFR   IFR   Intensive IFR   Very Intensive IFR
Visi :
Ceiling :
>= 8 km
>= 3000ft
5 to 8 km
1000 to 3000 ft
1500m to 5 km
500 to 1000 ft
800 to 1500m
200 to 500 ft
< 800m
< 200 ft
Symbols :   Thunderstorms  Fog  Heavy snow  Heavy precipitations  Wind > 20 kt
SIGMETs :     Misc.  Thunderstorms  Icing  Turbulence  Mountain Waves  Volcanic Ashes






- Airport Elevation : 204 ft
- IATA code : KSU


ENKB - Kristiansund , Kvernberget

CURRENT METAR :
  • 011950Z 12014KT 080V160 CAVOK 16/05 Q1010 RMK WIND 745FT 14025KT

EXPIRED METARs :
  • 011920Z 12010G22KT 070V160 CAVOK 16/05 Q1010 RMK WIND 745FT 13016G27KT
  • 011850Z 07009KT 030V130 CAVOK 15/05 Q1010 RMK WIND 745FT 12014KT
  • 011820Z 10006KT 050V140 CAVOK 15/06 Q1010 RMK WIND 745FT 13015KT
  • 011750Z 12010KT CAVOK 16/06 Q1010 RMK WIND 745FT 14020KT
  • 011720Z 12009KT 080V150 CAVOK 16/06 Q1010 RMK WIND 745FT 14020KT
  • 011650Z 12009KT 060V150 CAVOK 16/06 Q1010 RMK WIND 745FT 14019KT

Expired Forecast.



MET'MAP, your aeronautical weather chart ! - Copyright ORBIFLY December 2007 - Disclaimer

ORBIFLY MET'MAP TEAM :

Programming & Development : Alexandra Zaïnal
Concept & original design : Baudouin d'Aumeries
Assistance for programming : Marc-Olivier Méhu
Technical & hardware support : Manuel Goepfert

Contact : metmap@orbifly.com




SOURCES & CREDITS :

   NOAA